createdAt,value
2019-05-30T00:00:17.241Z,5.1
2019-05-30T00:01:11.728Z,5.1
2019-05-30T00:02:11.806Z,5.1
2019-05-30T00:03:11.805Z,5.1
2019-05-30T00:04:11.815Z,5.1
2019-05-30T00:05:11.862Z,5.1
2019-05-30T00:06:11.889Z,5.1
2019-05-30T00:07:11.964Z,5.1
2019-05-30T00:08:14.142Z,5.1
2019-05-30T00:09:11.975Z,5.1
2019-05-30T00:10:11.997Z,5
2019-05-30T00:11:12.007Z,5
2019-05-30T00:12:12.045Z,5
2019-05-30T00:13:12.005Z,5
2019-05-30T00:14:12.012Z,5
2019-05-30T00:15:12.040Z,5
2019-05-30T00:16:12.089Z,5
2019-05-30T00:17:12.102Z,5
2019-05-30T00:18:12.133Z,4.9
2019-05-30T00:19:12.131Z,5
2019-05-30T00:20:12.156Z,5
2019-05-30T00:21:12.215Z,5
2019-05-30T00:22:12.232Z,5
2019-05-30T00:23:13.332Z,5
2019-05-30T00:24:12.227Z,5
2019-05-30T00:25:12.247Z,5
2019-05-30T00:26:12.278Z,5
2019-05-30T00:27:12.425Z,5
2019-05-30T00:28:12.347Z,5
2019-05-30T00:29:12.360Z,5
2019-05-30T00:30:23.666Z,5
2019-05-30T00:31:12.368Z,5.1
2019-05-30T00:32:12.427Z,5
2019-05-30T00:33:12.447Z,5
2019-05-30T00:34:12.422Z,5
2019-05-30T00:35:12.520Z,5.1
2019-05-30T00:36:12.444Z,5.1
2019-05-30T00:37:12.457Z,5.1
2019-05-30T00:38:12.452Z,5.1
2019-05-30T00:39:12.460Z,5.1
2019-05-30T00:40:12.500Z,5
2019-05-30T00:41:12.472Z,5
2019-05-30T00:42:12.507Z,5.1
2019-05-30T00:43:12.505Z,5
2019-05-30T00:44:12.537Z,5
2019-05-30T00:45:20.647Z,5
2019-05-30T00:46:12.542Z,5
2019-05-30T00:47:12.502Z,5
2019-05-30T00:48:12.573Z,5
2019-05-30T00:49:12.596Z,5
2019-05-30T00:50:12.602Z,5
2019-05-30T00:51:12.634Z,5
2019-05-30T00:52:12.691Z,5
2019-05-30T00:53:12.784Z,5
2019-05-30T00:54:12.828Z,5
2019-05-30T00:55:12.843Z,5
2019-05-30T00:56:12.902Z,5
2019-05-30T00:57:13.013Z,5
2019-05-30T00:58:13.055Z,5
2019-05-30T00:59:13.114Z,5
2019-05-30T01:00:13.139Z,5
2019-05-30T01:01:13.186Z,5
2019-05-30T01:02:13.246Z,5
2019-05-30T01:03:13.346Z,4.9
2019-05-30T01:04:13.339Z,4.9
2019-05-30T01:05:13.361Z,5
2019-05-30T01:06:13.359Z,5
2019-05-30T01:07:13.377Z,5
2019-05-30T01:08:13.451Z,5
2019-05-30T01:09:13.443Z,5
2019-05-30T01:10:13.511Z,5
2019-05-30T01:11:13.558Z,5.1
2019-05-30T01:12:13.600Z,5.1
2019-05-30T01:13:13.595Z,5.1
2019-05-30T01:14:13.604Z,5.1
2019-05-30T01:15:13.649Z,5.2
2019-05-30T01:16:13.663Z,5.1
2019-05-30T01:17:13.753Z,5
2019-05-30T01:18:13.781Z,4.9
2019-05-30T01:19:13.819Z,4.8
2019-05-30T01:20:13.851Z,4.8
2019-05-30T01:21:13.860Z,4.8
2019-05-30T01:22:13.891Z,4.7
2019-05-30T01:23:13.986Z,4.7
2019-05-30T01:24:13.978Z,4.7
2019-05-30T01:25:14.046Z,4.7
2019-05-30T01:26:14.059Z,4.7
2019-05-30T01:27:14.123Z,4.7
2019-05-30T01:28:14.210Z,4.7
2019-05-30T01:29:14.213Z,4.6
2019-05-30T01:30:14.257Z,4.7
2019-05-30T01:31:14.304Z,4.6
2019-05-30T01:32:14.374Z,4.7
2019-05-30T01:33:14.388Z,4.6
2019-05-30T01:34:14.420Z,4.7
2019-05-30T01:35:14.410Z,4.7
2019-05-30T01:36:14.540Z,4.7
2019-05-30T01:37:14.527Z,4.6
2019-05-30T01:38:14.589Z,4.6
2019-05-30T01:39:14.651Z,4.6
2019-05-30T01:40:14.623Z,4.6
2019-05-30T01:41:17.504Z,4.6
2019-05-30T01:42:14.672Z,4.6
2019-05-30T01:43:14.701Z,4.6
2019-05-30T01:44:14.745Z,4.7
2019-05-30T01:45:14.757Z,4.8
2019-05-30T01:46:14.772Z,4.8
2019-05-30T01:47:14.804Z,4.8
2019-05-30T01:48:14.810Z,4.7
2019-05-30T01:49:14.865Z,4.6
2019-05-30T01:50:14.908Z,4.6
2019-05-30T01:51:14.901Z,4.5
2019-05-30T01:52:14.893Z,4.4
2019-05-30T01:53:14.938Z,4.4
2019-05-30T01:54:14.979Z,4.4
2019-05-30T01:55:15.019Z,4.4
2019-05-30T01:56:15.006Z,4.4
2019-05-30T01:57:15.044Z,4.4
2019-05-30T01:58:15.098Z,4.4
2019-05-30T01:59:15.108Z,4.4
2019-05-30T02:00:20.452Z,4.4
2019-05-30T02:01:23.944Z,4.4
2019-05-30T02:02:15.153Z,4.4
2019-05-30T02:03:15.188Z,4.3
2019-05-30T02:04:15.209Z,4.3
2019-05-30T02:05:15.282Z,4.3
2019-05-30T02:06:15.271Z,4.4
2019-05-30T02:07:15.302Z,4.4
2019-05-30T02:08:15.259Z,4.4
2019-05-30T02:09:15.311Z,4.4
2019-05-30T02:10:15.315Z,4.4
2019-05-30T02:11:15.319Z,4.3
2019-05-30T02:12:15.373Z,4.3
2019-05-30T02:13:15.390Z,4.3
2019-05-30T02:14:15.426Z,4.2
2019-05-30T02:15:15.402Z,4.2
2019-05-30T02:16:15.391Z,4.2
2019-05-30T02:17:15.478Z,4.2
2019-05-30T02:18:15.432Z,4.2
2019-05-30T02:19:15.444Z,4.2
2019-05-30T02:20:15.515Z,4.2
2019-05-30T02:21:15.461Z,4.2
2019-05-30T02:22:15.516Z,4.2
2019-05-30T02:23:15.497Z,4.2
2019-05-30T02:24:15.831Z,4.3
2019-05-30T02:25:15.504Z,4.3
2019-05-30T02:26:15.559Z,4.3
2019-05-30T02:27:15.554Z,4.3
2019-05-30T02:28:15.607Z,4.3
2019-05-30T02:29:15.593Z,4.2
2019-05-30T02:30:15.579Z,4.3
2019-05-30T02:31:15.595Z,4.3
2019-05-30T02:32:15.570Z,4.3
2019-05-30T02:33:15.570Z,4.3
2019-05-30T02:34:15.609Z,4.3
2019-05-30T02:35:15.564Z,4.3
2019-05-30T02:36:15.621Z,4.3
2019-05-30T02:37:15.681Z,4.3
2019-05-30T02:38:15.663Z,4.3
2019-05-30T02:39:18.024Z,4.3
2019-05-30T02:40:15.776Z,4.3
2019-05-30T02:41:15.883Z,4.3
2019-05-30T02:42:15.887Z,4.3
2019-05-30T02:43:15.987Z,4.3
2019-05-30T02:44:16.008Z,4.2
2019-05-30T02:45:16.014Z,4.2
2019-05-30T02:46:16.001Z,4.2
2019-05-30T02:47:16.062Z,4.2
2019-05-30T02:48:16.118Z,4.2
2019-05-30T02:49:16.119Z,4.2
2019-05-30T02:50:16.251Z,4.1
2019-05-30T02:51:16.265Z,4.2
2019-05-30T02:52:16.326Z,4.2
2019-05-30T02:53:16.331Z,4.1
2019-05-30T02:54:16.402Z,4.1
2019-05-30T02:55:16.464Z,4.1
2019-05-30T02:56:16.506Z,4.1
2019-05-30T02:57:16.525Z,4.1
2019-05-30T02:58:16.586Z,4.1
2019-05-30T02:59:16.646Z,4.1
2019-05-30T03:00:17.995Z,4.1
2019-05-30T03:01:16.747Z,4.1
2019-05-30T03:02:17.762Z,4.1
2019-05-30T03:03:16.835Z,4.1
2019-05-30T03:04:16.845Z,4.1
2019-05-30T03:05:16.907Z,4.1
2019-05-30T03:06:17.035Z,4.1
2019-05-30T03:07:17.061Z,4.2
2019-05-30T03:08:17.083Z,4.1
2019-05-30T03:09:17.098Z,4.1
2019-05-30T03:10:17.158Z,4
2019-05-30T03:11:17.186Z,4.1
2019-05-30T03:12:17.296Z,4.2
2019-05-30T03:13:17.311Z,4.2
2019-05-30T03:14:19.662Z,4.2
2019-05-30T03:15:17.357Z,4.2
2019-05-30T03:16:17.416Z,4.2
2019-05-30T03:17:17.495Z,4.2
2019-05-30T03:18:17.477Z,4.2
2019-05-30T03:19:17.562Z,4.2
2019-05-30T03:20:22.459Z,4.2
2019-05-30T03:21:17.654Z,4.2
2019-05-30T03:22:17.736Z,4.2
2019-05-30T03:23:17.795Z,4.2
2019-05-30T03:24:17.791Z,4.2
2019-05-30T03:25:17.781Z,4.2
2019-05-30T03:26:17.816Z,4.2
2019-05-30T03:27:17.943Z,4.2
2019-05-30T03:28:17.961Z,4.2
2019-05-30T03:29:17.959Z,4.2
2019-05-30T03:30:26.396Z,4.2
2019-05-30T03:31:27.607Z,4.2
2019-05-30T03:32:58.794Z,4.2
2019-05-30T03:33:35.469Z,4.1
2019-05-30T03:34:27.202Z,4.2
2019-05-30T03:35:26.730Z,4.2
2019-05-30T03:36:28.133Z,4.1
2019-05-30T03:37:27.690Z,4.2
2019-05-30T03:38:18.176Z,4.2
2019-05-30T03:39:18.230Z,4.1
2019-05-30T03:40:19.208Z,4.1
2019-05-30T03:41:18.295Z,4.2
2019-05-30T03:42:18.283Z,4.2
2019-05-30T03:43:18.388Z,4.2
2019-05-30T03:44:18.401Z,4.1
2019-05-30T03:45:18.443Z,4.2
2019-05-30T03:46:31.896Z,4.1
2019-05-30T03:47:18.429Z,4.2
2019-05-30T03:48:18.532Z,4.1
2019-05-30T03:49:18.509Z,4.2
2019-05-30T03:50:18.666Z,4.2
2019-05-30T03:51:18.574Z,4.2
2019-05-30T03:52:18.593Z,4.2
2019-05-30T03:53:18.631Z,4.2
2019-05-30T03:54:18.730Z,4.2
2019-05-30T03:55:18.712Z,4.3
2019-05-30T03:56:18.673Z,4.3
2019-05-30T03:57:18.679Z,4.3
2019-05-30T03:58:20.250Z,4.3
2019-05-30T03:59:18.727Z,4.3
2019-05-30T04:00:18.775Z,4.3
2019-05-30T04:01:18.780Z,4.3
2019-05-30T04:02:19.030Z,4.3
2019-05-30T04:03:19.274Z,4.3
2019-05-30T04:04:19.195Z,4.3
2019-05-30T04:05:19.273Z,4.3
2019-05-30T04:06:19.257Z,4.3
2019-05-30T04:07:19.528Z,4.3
2019-05-30T04:08:19.649Z,4.3
2019-05-30T04:09:22.275Z,4.4
2019-05-30T04:10:19.803Z,4.3
2019-05-30T04:11:19.701Z,4.4
2019-05-30T04:12:19.928Z,4.4
2019-05-30T04:13:19.356Z,4.3
2019-05-30T04:14:19.389Z,4.4
2019-05-30T04:15:18.977Z,4.4
2019-05-30T04:16:19.640Z,4.4
2019-05-30T04:17:19.955Z,4.4
2019-05-30T04:18:19.521Z,4.4
2019-05-30T04:19:19.959Z,4.5
2019-05-30T04:20:22.418Z,4.5
2019-05-30T04:21:21.447Z,4.4
2019-05-30T04:22:19.568Z,4.6
2019-05-30T04:23:19.542Z,4.5
2019-05-30T04:24:19.720Z,4.5
2019-05-30T04:25:18.969Z,4.5
2019-05-30T04:26:19.060Z,4.5
2019-05-30T04:27:19.093Z,4.6
2019-05-30T04:28:19.171Z,4.6
2019-05-30T04:29:19.255Z,4.6
2019-05-30T04:30:19.310Z,4.6
2019-05-30T04:31:19.656Z,4.7
2019-05-30T04:32:19.357Z,4.7
2019-05-30T04:33:32.259Z,4.7
2019-05-30T04:34:19.673Z,4.7
2019-05-30T04:35:19.509Z,4.7
2019-05-30T04:36:19.500Z,4.7
2019-05-30T04:37:19.567Z,4.8
2019-05-30T04:38:19.699Z,4.8
2019-05-30T04:39:19.644Z,4.8
2019-05-30T04:40:19.818Z,4.9
2019-05-30T04:41:20.941Z,4.9
2019-05-30T04:42:20.751Z,4.9
2019-05-30T04:43:20.356Z,4.9
2019-05-30T04:44:20.295Z,5
2019-05-30T04:45:20.301Z,5
2019-05-30T04:46:21.721Z,5
2019-05-30T04:47:20.766Z,5
2019-05-30T04:48:21.204Z,5
2019-05-30T04:49:21.562Z,5.1
2019-05-30T04:50:20.659Z,5.1
2019-05-30T04:51:21.618Z,5.1
2019-05-30T04:52:24.072Z,5.2
2019-05-30T04:53:20.859Z,5.2
2019-05-30T04:54:21.349Z,5.2
2019-05-30T04:55:22.387Z,5.2
2019-05-30T04:56:21.894Z,5.3
2019-05-30T04:57:25.610Z,5.3
2019-05-30T04:58:23.463Z,5.3
2019-05-30T04:59:21.846Z,5.3
2019-05-30T05:00:21.401Z,5.4
2019-05-30T05:01:21.991Z,5.4
2019-05-30T05:02:22.573Z,5.4
2019-05-30T05:03:41.507Z,5.5
2019-05-30T05:04:21.605Z,5.5
2019-05-30T05:05:26.164Z,5.5
2019-05-30T05:06:21.885Z,5.5
2019-05-30T05:07:21.995Z,5.6
2019-05-30T05:08:22.079Z,5.6
2019-05-30T05:09:22.329Z,5.6
2019-05-30T05:10:22.310Z,5.7
2019-05-30T05:11:24.645Z,5.7
2019-05-30T05:12:22.302Z,5.7
2019-05-30T05:13:22.428Z,5.8
2019-05-30T05:14:22.545Z,5.8
2019-05-30T05:15:22.637Z,5.9
2019-05-30T05:16:30.586Z,5.9
2019-05-30T05:17:21.142Z,6
2019-05-30T05:18:21.271Z,6
2019-05-30T05:19:22.118Z,6.1
2019-05-30T05:20:21.483Z,6.1
2019-05-30T05:21:21.207Z,6.1
2019-05-30T05:22:21.263Z,6.2
2019-05-30T05:23:21.411Z,6.2
2019-05-30T05:24:21.493Z,6.3
2019-05-30T05:25:21.527Z,6.3
2019-05-30T05:26:21.648Z,6.4
2019-05-30T05:27:21.728Z,6.5
2019-05-30T05:28:22.002Z,6.5
2019-05-30T05:29:21.978Z,6.5
2019-05-30T05:30:22.461Z,6.6
2019-05-30T05:31:22.447Z,6.6
2019-05-30T05:32:22.609Z,6.7
2019-05-30T05:33:22.633Z,6.7
2019-05-30T05:34:22.692Z,6.7
2019-05-30T05:35:22.884Z,6.6
2019-05-30T05:36:22.964Z,6.7
2019-05-30T05:37:21.711Z,6.7
2019-05-30T05:38:22.396Z,6.7
2019-05-30T05:39:22.197Z,6.8
2019-05-30T05:40:22.391Z,6.8
2019-05-30T05:41:22.268Z,6.8
2019-05-30T05:42:22.403Z,6.9
2019-05-30T05:43:22.452Z,6.9
2019-05-30T05:44:22.428Z,6.9
2019-05-30T05:45:22.771Z,7
2019-05-30T05:46:22.525Z,7
2019-05-30T05:47:22.774Z,7
2019-05-30T05:48:22.575Z,7
2019-05-30T05:49:22.593Z,7.1
2019-05-30T05:50:24.625Z,7.1
2019-05-30T05:51:22.737Z,7.2
2019-05-30T05:52:22.793Z,7.2
2019-05-30T05:53:23.023Z,7.2
2019-05-30T05:54:22.960Z,7.3
2019-05-30T05:55:22.893Z,7.4
2019-05-30T05:56:22.879Z,7.3
2019-05-30T05:57:22.918Z,7.3
2019-05-30T05:58:23.851Z,7.3
2019-05-30T05:59:22.993Z,7.3
2019-05-30T06:00:23.257Z,7.4
2019-05-30T06:01:23.360Z,7.4
2019-05-30T06:02:23.230Z,7.5
2019-05-30T06:03:22.284Z,7.6
2019-05-30T06:04:23.128Z,7.8
2019-05-30T06:05:22.302Z,7.7
2019-05-30T06:06:23.313Z,7.7
2019-05-30T06:07:22.385Z,7.6
2019-05-30T06:08:22.097Z,7.5
2019-05-30T06:09:22.575Z,7.7
2019-05-30T06:10:22.215Z,7.9
2019-05-30T06:11:22.687Z,8.1
2019-05-30T06:12:22.283Z,8.3
2019-05-30T06:13:22.873Z,8.2
2019-05-30T06:14:22.401Z,8.4
2019-05-30T06:15:22.900Z,8.8
2019-05-30T06:16:22.533Z,8.8
2019-05-30T06:17:23.061Z,8.6
2019-05-30T06:18:22.627Z,8.4
2019-05-30T06:19:23.183Z,8.6
2019-05-30T06:20:23.292Z,8.8
2019-05-30T06:21:23.394Z,9.1
2019-05-30T06:22:23.569Z,9.1
2019-05-30T06:23:23.626Z,8.8
2019-05-30T06:24:23.629Z,8.6
2019-05-30T06:25:25.076Z,8.2
2019-05-30T06:26:24.275Z,7.9
2019-05-30T06:27:26.118Z,8.2
2019-05-30T06:28:24.139Z,8.4
2019-05-30T06:29:24.107Z,8
2019-05-30T06:30:24.293Z,8.1
2019-05-30T06:31:24.377Z,8.2
2019-05-30T06:32:24.559Z,8.5
2019-05-30T06:33:24.891Z,8.5
2019-05-30T06:34:32.175Z,8.3
2019-05-30T06:35:23.480Z,8.3
2019-05-30T06:36:23.533Z,8.4
2019-05-30T06:37:23.645Z,8.8
2019-05-30T06:38:23.649Z,8.4
2019-05-30T06:39:23.651Z,8
2019-05-30T06:40:23.801Z,8
2019-05-30T06:41:23.730Z,7.9
2019-05-30T06:42:23.790Z,7.7
2019-05-30T06:43:24.321Z,8.1
2019-05-30T06:44:23.988Z,8.4
2019-05-30T06:45:25.220Z,9
2019-05-30T06:46:24.165Z,9.3
2019-05-30T06:47:24.348Z,8.8
2019-05-30T06:48:24.610Z,8.3
2019-05-30T06:49:24.705Z,8.3
2019-05-30T06:50:24.693Z,8.2
2019-05-30T06:51:24.829Z,9.2
2019-05-30T06:52:24.924Z,9.2
2019-05-30T06:53:25.105Z,9.2
2019-05-30T06:54:24.710Z,9
2019-05-30T06:55:25.122Z,8.2
2019-05-30T06:56:25.258Z,8.6
2019-05-30T06:57:25.217Z,7.6
2019-05-30T06:58:41.246Z,8.1
2019-05-30T06:59:25.471Z,8
2019-05-30T07:00:26.257Z,7.8
2019-05-30T07:01:24.382Z,8.4
2019-05-30T07:02:24.548Z,8.4
2019-05-30T07:03:24.564Z,8.8
2019-05-30T07:04:25.395Z,8.9
2019-05-30T07:05:26.072Z,8.6
2019-05-30T07:06:25.272Z,8.3
2019-05-30T07:07:25.028Z,8.7
2019-05-30T07:08:24.816Z,9
2019-05-30T07:09:24.899Z,8.5
2019-05-30T07:10:24.900Z,8.3
2019-05-30T07:11:24.804Z,7.8
2019-05-30T07:12:26.297Z,6
2019-05-30T07:13:25.191Z,6.8
2019-05-30T07:14:25.185Z,5.9
2019-05-30T07:15:25.098Z,7.5
2019-05-30T07:16:25.314Z,7.7
2019-05-30T07:17:25.267Z,7.8
2019-05-30T07:18:25.386Z,7.2
2019-05-30T07:19:25.314Z,5
2019-05-30T07:20:25.475Z,5.2
2019-05-30T07:21:25.502Z,6.1
2019-05-30T07:22:25.572Z,7.7
2019-05-30T07:23:25.772Z,5.4
2019-05-30T07:24:25.634Z,4.7
2019-05-30T07:25:25.686Z,7.7
2019-05-30T07:26:25.618Z,7.1
2019-05-30T07:27:26.015Z,7.4
2019-05-30T07:28:25.795Z,6.8
2019-05-30T07:29:25.792Z,7
2019-05-30T07:30:25.815Z,6.8
2019-05-30T07:31:26.014Z,7.3
2019-05-30T07:32:25.796Z,6.6
2019-05-30T07:33:25.948Z,6.3
2019-05-30T07:34:25.909Z,6.2
2019-05-30T07:35:25.920Z,7.8
2019-05-30T07:36:26.085Z,7.6
2019-05-30T07:37:26.093Z,5
2019-05-30T07:38:26.278Z,6.4
2019-05-30T07:39:26.913Z,5.2
2019-05-30T07:40:26.474Z,5
2019-05-30T07:41:26.665Z,5.7
2019-05-30T07:42:26.444Z,6.8
2019-05-30T07:43:26.875Z,4.4
2019-05-30T07:44:25.309Z,4
2019-05-30T07:45:25.403Z,3
2019-05-30T07:46:25.322Z,2.2
2019-05-30T07:47:25.965Z,2.2
2019-05-30T07:48:25.995Z,3.9
2019-05-30T07:49:26.222Z,5.9
2019-05-30T07:50:28.343Z,6
2019-05-30T07:51:26.337Z,6.9
2019-05-30T07:52:26.416Z,6.9
2019-05-30T07:53:26.556Z,6
2019-05-30T07:54:26.474Z,4.9
2019-05-30T07:55:25.410Z,6.6
2019-05-30T07:56:35.321Z,4.9
2019-05-30T07:57:26.086Z,4.4
2019-05-30T07:58:25.490Z,3.7
2019-05-30T07:59:26.336Z,6.1
2019-05-30T08:00:25.642Z,7.2
2019-05-30T08:01:26.355Z,7.7
2019-05-30T08:02:27.929Z,6.9
2019-05-30T08:03:28.390Z,5.3
2019-05-30T08:04:25.782Z,4.6
2019-05-30T08:05:26.672Z,4.7
2019-05-30T08:06:25.923Z,6.5
2019-05-30T08:07:26.515Z,7.4
2019-05-30T08:08:26.014Z,7.4
2019-05-30T08:09:26.794Z,7
2019-05-30T08:10:26.098Z,6.7
2019-05-30T08:11:26.740Z,7.2
2019-05-30T08:12:26.232Z,3.8
2019-05-30T08:13:26.954Z,4.7
2019-05-30T08:14:26.965Z,6.7
2019-05-30T08:15:27.257Z,6.5
2019-05-30T08:16:29.142Z,5.4
2019-05-30T08:17:29.470Z,4.7
2019-05-30T08:18:27.499Z,5.8
2019-05-30T08:19:27.734Z,6
2019-05-30T08:20:27.601Z,6.8
2019-05-30T08:21:27.741Z,5.4
2019-05-30T08:22:27.860Z,5.3
2019-05-30T08:23:27.947Z,4.8
2019-05-30T08:24:28.054Z,5.3
2019-05-30T08:25:27.874Z,5.2
2019-05-30T08:26:27.991Z,5
2019-05-30T08:27:27.993Z,5.7
2019-05-30T08:28:28.643Z,6.1
2019-05-30T08:29:28.034Z,6.2
2019-05-30T08:30:28.193Z,5.2
2019-05-30T08:31:28.470Z,6.5
2019-05-30T08:32:28.279Z,5.2
2019-05-30T08:33:27.242Z,4.7
2019-05-30T08:34:28.329Z,6.6
2019-05-30T08:35:38.887Z,4.5
2019-05-30T08:36:30.813Z,5.1
2019-05-30T08:37:27.314Z,4.4
2019-05-30T08:38:27.406Z,6
2019-05-30T08:39:27.441Z,6.6
2019-05-30T08:40:27.481Z,6.3
2019-05-30T08:41:27.531Z,6.8
2019-05-30T08:42:28.021Z,6.2
2019-05-30T08:43:27.685Z,6.3
2019-05-30T08:44:27.636Z,5.6
2019-05-30T08:45:27.667Z,6.4
2019-05-30T08:46:27.703Z,5.2
2019-05-30T08:47:27.831Z,4.2
2019-05-30T08:48:27.784Z,5.5
2019-05-30T08:49:27.799Z,7.2
2019-05-30T08:50:27.827Z,7.7
2019-05-30T08:51:27.848Z,7.6
2019-05-30T08:52:27.876Z,5.9
2019-05-30T08:53:27.934Z,5
2019-05-30T08:54:28.002Z,6.4
2019-05-30T08:55:27.977Z,6.3
2019-05-30T08:56:28.597Z,6
2019-05-30T08:57:28.085Z,3.6
2019-05-30T08:58:28.113Z,4.1
2019-05-30T08:59:28.153Z,2.3
2019-05-30T09:00:28.138Z,2.7
2019-05-30T09:01:28.221Z,3.6
2019-05-30T09:02:28.205Z,4.4
2019-05-30T09:03:28.291Z,5.6
2019-05-30T09:04:28.313Z,4.8
2019-05-30T09:05:28.316Z,3.1
2019-05-30T09:06:28.354Z,3.5
2019-05-30T09:07:31.268Z,4.9
2019-05-30T09:08:28.410Z,5.5
2019-05-30T09:09:28.413Z,4.2
2019-05-30T09:10:28.419Z,4.9
2019-05-30T09:11:28.509Z,4.9
2019-05-30T09:12:28.473Z,4.5
2019-05-30T09:13:28.516Z,4.1
2019-05-30T09:14:28.527Z,3.4
2019-05-30T09:15:28.559Z,4
2019-05-30T09:16:28.583Z,4.8
2019-05-30T09:17:28.615Z,4.3
2019-05-30T09:18:28.626Z,4
2019-05-30T09:19:28.591Z,5.2
2019-05-30T09:20:30.828Z,5.7
2019-05-30T09:21:28.683Z,5.6
2019-05-30T09:22:28.690Z,5.2
2019-05-30T09:23:28.680Z,4.6
2019-05-30T09:24:28.710Z,5.1
2019-05-30T09:25:28.729Z,5.9
2019-05-30T09:26:28.725Z,4.9
2019-05-30T09:27:28.756Z,2.8
2019-05-30T09:28:28.758Z,3.5
2019-05-30T09:29:28.785Z,4.2
2019-05-30T09:30:28.762Z,5.2
2019-05-30T09:31:28.813Z,5.2
2019-05-30T09:32:28.817Z,4.2
2019-05-30T09:33:28.785Z,5.4
2019-05-30T09:34:28.830Z,4.8
2019-05-30T09:35:28.830Z,4.9
2019-05-30T09:36:28.804Z,5.4
2019-05-30T09:37:28.838Z,5.5
2019-05-30T09:38:28.806Z,4.5
2019-05-30T09:39:29.773Z,4.8
2019-05-30T09:40:28.841Z,5
2019-05-30T09:41:28.856Z,5.5
2019-05-30T09:42:28.902Z,5.6
2019-05-30T09:43:28.976Z,5
2019-05-30T09:44:29.035Z,4.4
2019-05-30T09:45:29.030Z,4.9
2019-05-30T09:46:29.089Z,3.7
2019-05-30T09:47:29.174Z,4.4
2019-05-30T09:48:29.185Z,3.8
2019-05-30T09:49:29.380Z,3.9
2019-05-30T09:50:29.352Z,3
2019-05-30T09:51:29.411Z,3.4
2019-05-30T09:52:29.489Z,5.3
2019-05-30T09:53:29.467Z,2.7
2019-05-30T09:54:29.558Z,2.8
2019-05-30T09:55:29.611Z,2.9
2019-05-30T09:56:29.693Z,4.5
2019-05-30T09:57:29.721Z,4.4
2019-05-30T09:58:29.825Z,5.3
2019-05-30T09:59:29.992Z,5.8
2019-05-30T10:00:29.889Z,4.5
2019-05-30T10:01:31.021Z,4.5
2019-05-30T10:02:30.017Z,2.9
2019-05-30T10:03:30.085Z,4.1
2019-05-30T10:04:30.126Z,4.2
2019-05-30T10:05:30.168Z,4.5
2019-05-30T10:06:30.390Z,2.7
2019-05-30T10:07:30.245Z,4.8
2019-05-30T10:08:30.360Z,4.2
2019-05-30T10:09:30.391Z,5.3
2019-05-30T10:10:30.465Z,5.1
2019-05-30T10:11:30.493Z,3.9
2019-05-30T10:12:30.452Z,3.9
2019-05-30T10:13:30.498Z,3.8
2019-05-30T10:14:30.539Z,3.2
2019-05-30T10:15:30.616Z,3.3
2019-05-30T10:16:30.673Z,3.1
2019-05-30T10:17:30.724Z,2.8
2019-05-30T10:18:30.731Z,2.1
2019-05-30T10:19:30.771Z,2.6
2019-05-30T10:20:30.867Z,3.1
2019-05-30T10:21:30.850Z,3.1
2019-05-30T10:22:30.923Z,2.2
2019-05-30T10:23:30.937Z,1.9
2019-05-30T10:24:30.990Z,3
2019-05-30T10:25:31.072Z,1.5
2019-05-30T10:26:31.066Z,3
2019-05-30T10:27:33.421Z,3
2019-05-30T10:28:31.174Z,3.6
2019-05-30T10:29:31.406Z,4.3
2019-05-30T10:30:31.247Z,4.4
2019-05-30T10:31:31.317Z,4.3
2019-05-30T10:32:31.391Z,4.3
2019-05-30T10:33:31.413Z,3.8
2019-05-30T10:34:31.451Z,4.2
2019-05-30T10:35:31.550Z,3.5
2019-05-30T10:36:43.304Z,4.1
2019-05-30T10:37:31.575Z,4.3
2019-05-30T10:38:31.606Z,5.3
2019-05-30T10:39:31.633Z,5.2
2019-05-30T10:40:32.254Z,5
2019-05-30T10:41:31.797Z,4.8
2019-05-30T10:42:31.716Z,4.8
2019-05-30T10:43:31.810Z,5
2019-05-30T10:44:34.366Z,4.2
2019-05-30T10:45:31.838Z,4
2019-05-30T10:46:31.937Z,3
2019-05-30T10:47:31.888Z,4.4
2019-05-30T10:48:32.010Z,4.8
2019-05-30T10:49:34.895Z,5.3
2019-05-30T10:50:32.016Z,4.3
2019-05-30T10:51:32.093Z,4.2
2019-05-30T10:52:32.088Z,4.4
2019-05-30T10:53:32.127Z,6.5
2019-05-30T10:54:32.159Z,5.9
2019-05-30T10:55:32.176Z,6
2019-05-30T10:56:32.269Z,5.4
2019-05-30T10:57:32.277Z,5.7
2019-05-30T10:58:32.321Z,5.4
2019-05-30T10:59:32.344Z,5.6
2019-05-30T11:00:32.351Z,4.8
2019-05-30T11:01:32.392Z,5.8
2019-05-30T11:02:32.387Z,5.9
2019-05-30T11:03:32.456Z,6
2019-05-30T11:04:32.424Z,3.9
2019-05-30T11:05:32.458Z,3.7
2019-05-30T11:06:34.553Z,3.9
2019-05-30T11:07:32.524Z,4.4
2019-05-30T11:08:32.517Z,6
2019-05-30T11:09:32.569Z,4.8
2019-05-30T11:10:32.592Z,5.2
2019-05-30T11:11:32.630Z,4.2
2019-05-30T11:12:32.580Z,4.6
2019-05-30T11:13:32.684Z,5.3
2019-05-30T11:14:32.616Z,4.9
2019-05-30T11:15:32.668Z,4.8
2019-05-30T11:16:32.689Z,5.1
2019-05-30T11:17:32.682Z,5.1
2019-05-30T11:18:32.701Z,6.1
2019-05-30T11:19:32.675Z,6.2
2019-05-30T11:20:32.755Z,5.5
2019-05-30T11:21:32.744Z,5.5
2019-05-30T11:22:32.854Z,4.4
2019-05-30T11:23:32.846Z,4.9
2019-05-30T11:24:33.877Z,4.8
2019-05-30T11:25:32.872Z,4.6
2019-05-30T11:26:32.847Z,4.7
2019-05-30T11:27:32.868Z,3.5
2019-05-30T11:28:32.939Z,3.6
2019-05-30T11:29:32.885Z,3.2
2019-05-30T11:30:32.908Z,3.5
2019-05-30T11:31:32.903Z,4.3
2019-05-30T11:32:32.924Z,4.9
2019-05-30T11:33:33.001Z,3.7
2019-05-30T11:34:32.955Z,3.4
2019-05-30T11:35:32.943Z,3.3
2019-05-30T11:36:32.964Z,3.7
2019-05-30T11:37:32.940Z,3.8
2019-05-30T11:38:32.997Z,4.2
2019-05-30T11:39:33.009Z,4.8
2019-05-30T11:40:32.944Z,4.1
2019-05-30T11:41:32.949Z,4.4
2019-05-30T11:42:33.039Z,3.2
2019-05-30T11:43:33.127Z,3.4
2019-05-30T11:44:33.138Z,3.3
2019-05-30T11:45:33.215Z,3.9
2019-05-30T11:46:33.205Z,3.3
2019-05-30T11:47:35.743Z,3.8
2019-05-30T11:48:33.395Z,4
2019-05-30T11:49:33.399Z,3.1
2019-05-30T11:50:33.372Z,4
2019-05-30T11:51:33.469Z,3.8
2019-05-30T11:52:33.423Z,3.7
2019-05-30T11:53:33.553Z,4.5
2019-05-30T11:54:33.542Z,3.8
2019-05-30T11:55:33.578Z,3.8
2019-05-30T11:56:33.632Z,4.1
2019-05-30T11:57:33.718Z,4.8
2019-05-30T11:58:33.779Z,4.2
2019-05-30T11:59:33.769Z,3.6
2019-05-30T12:00:33.827Z,4.2
2019-05-30T12:01:33.835Z,4.4
2019-05-30T12:02:33.881Z,4
2019-05-30T12:03:33.932Z,4
2019-05-30T12:04:34.001Z,3.5
2019-05-30T12:05:34.025Z,3.7
2019-05-30T12:06:34.035Z,3.5
2019-05-30T12:07:36.613Z,4
2019-05-30T12:08:34.167Z,5.3
2019-05-30T12:09:34.259Z,4.9
2019-05-30T12:10:34.240Z,5.9
2019-05-30T12:11:34.298Z,4.6
2019-05-30T12:12:34.313Z,5
2019-05-30T12:13:34.307Z,4.9
2019-05-30T12:14:34.421Z,4.4
2019-05-30T12:15:34.431Z,4.9
2019-05-30T12:16:34.575Z,5.4
2019-05-30T12:17:34.529Z,3.8
2019-05-30T12:18:34.617Z,4.1
2019-05-30T12:19:34.633Z,4.9
2019-05-30T12:20:34.659Z,5.4
2019-05-30T12:21:34.708Z,4.8
2019-05-30T12:22:34.782Z,5.2
2019-05-30T12:23:34.784Z,4.9
2019-05-30T12:24:34.872Z,4.8
2019-05-30T12:25:34.912Z,3.9
2019-05-30T12:26:34.925Z,4.4
2019-05-30T12:27:34.997Z,5.7
2019-05-30T12:28:35.329Z,5.5
2019-05-30T12:29:35.157Z,6.2
2019-05-30T12:30:35.160Z,5.6
2019-05-30T12:31:35.137Z,5.1
2019-05-30T12:32:35.172Z,5.3
2019-05-30T12:33:35.174Z,3.6
2019-05-30T12:34:35.192Z,4.4
2019-05-30T12:35:35.223Z,4.9
2019-05-30T12:36:35.240Z,5
2019-05-30T12:37:50.223Z,5.3
2019-05-30T12:38:35.392Z,4.2
2019-05-30T12:39:35.292Z,3.8
2019-05-30T12:40:35.341Z,3.5
2019-05-30T12:41:35.392Z,4.3
2019-05-30T12:42:35.397Z,4.1
2019-05-30T12:43:35.445Z,3.8
2019-05-30T12:44:35.478Z,4
2019-05-30T12:45:35.538Z,4
2019-05-30T12:46:35.479Z,3.4
2019-05-30T12:47:35.560Z,3.5
2019-05-30T12:48:35.561Z,4.1
2019-05-30T12:49:35.589Z,3.3
2019-05-30T12:50:35.613Z,3.2
2019-05-30T12:51:35.630Z,2.5
2019-05-30T12:52:35.606Z,2.6
2019-05-30T12:53:35.636Z,3.3
2019-05-30T12:54:35.664Z,2.8
2019-05-30T12:55:37.602Z,3
2019-05-30T12:56:35.689Z,4.3
2019-05-30T12:57:35.729Z,4
2019-05-30T12:58:35.725Z,3.6
2019-05-30T12:59:35.711Z,2.8
2019-05-30T13:00:35.733Z,3.3
2019-05-30T13:01:35.839Z,3.7
2019-05-30T13:02:35.778Z,4.4
2019-05-30T13:03:35.887Z,3.3
2019-05-30T13:04:35.796Z,4.1
2019-05-30T13:05:35.852Z,4.7
2019-05-30T13:07:08.291Z,5.4
2019-05-30T13:07:35.852Z,4.5
2019-05-30T13:08:35.861Z,5.5
2019-05-30T13:09:35.880Z,4.8
2019-05-30T13:10:35.836Z,4.3
2019-05-30T13:11:35.946Z,5.8
2019-05-30T13:12:35.867Z,5
2019-05-30T13:13:35.895Z,4.6
2019-05-30T13:14:35.904Z,5
2019-05-30T13:15:35.894Z,5.1
2019-05-30T13:16:35.944Z,4.4
2019-05-30T13:17:35.890Z,5
2019-05-30T13:18:35.883Z,4.6
2019-05-30T13:19:35.976Z,4.7
2019-05-30T13:20:36.203Z,4.4
2019-05-30T13:21:36.260Z,5.3
2019-05-30T13:22:36.149Z,4.5
2019-05-30T13:23:36.101Z,4.6
2019-05-30T13:24:36.333Z,4.7
2019-05-30T13:25:36.321Z,5.1
2019-05-30T13:26:36.364Z,4.5
2019-05-30T13:27:36.322Z,6
2019-05-30T13:28:36.376Z,4.8
2019-05-30T13:29:36.444Z,4.3
2019-05-30T13:30:36.446Z,4.1
2019-05-30T13:31:36.502Z,4.4
2019-05-30T13:32:36.589Z,5.6
2019-05-30T13:33:38.409Z,4.1
2019-05-30T13:34:36.712Z,3.7
2019-05-30T13:35:36.768Z,3.5
2019-05-30T13:36:36.768Z,4
2019-05-30T13:37:36.809Z,4.4
2019-05-30T13:38:36.849Z,3.4
2019-05-30T13:39:36.871Z,4
2019-05-30T13:40:36.941Z,3.7
2019-05-30T13:41:36.993Z,3.9
2019-05-30T13:42:37.010Z,3.9
2019-05-30T13:43:37.161Z,4.8
2019-05-30T13:44:37.062Z,4.2
2019-05-30T13:45:37.139Z,4.7
2019-05-30T13:46:37.120Z,4.5
2019-05-30T13:47:37.180Z,5
2019-05-30T13:48:37.225Z,3.1
2019-05-30T13:49:37.322Z,4.6
2019-05-30T13:50:37.371Z,3.5
2019-05-30T13:51:39.900Z,3.8
2019-05-30T13:52:37.464Z,4.2
2019-05-30T13:53:37.427Z,3.8
2019-05-30T13:54:37.532Z,3.6